Time,TemperatureF,DewpointF,PressureIn,WindDirection,WindDirectionDegrees,WindSpeedMPH,WindSpeedGustMPH,Humidity,HourlyPrecipIn,Conditions,Clouds,dailyrainin,SoftwareType,DateUTC
2013-07-05 00:04:00,51.3,47.8,29.38,ENE,68,0.0,0.0,88,0.00,CLR,OVC,0.00,WeatherDisplay:10.37,2013-07-04 14:04:00,
2013-07-05 00:09:00,51.4,48.3,29.38,West,270,0.0,0.0,89,0.00,CLR,OVC,0.00,WeatherDisplay:10.37,2013-07-04 14:09:00,
2013-07-05 00:14:00,51.3,47.8,29.38,SSE,158,0.0,0.0,88,0.00,CLR,OVC,0.00,WeatherDisplay:10.37,2013-07-04 14:14:00,
2013-07-05 00:19:00,51.1,47.6,29.38,SSE,158,0.0,0.0,88,0.00,CLR,OVC,0.00,WeatherDisplay:10.37,2013-07-04 14:19:00,
2013-07-05 00:24:00,51.1,47.6,29.38,SSE,158,0.0,0.0,88,0.00,CLR,OVC,0.00,WeatherDisplay:10.37,2013-07-04 14:24:00,
2013-07-05 00:29:00,51.1,47.6,29.38,East,90,0.0,0.0,88,0.00,CLR,OVC,0.00,WeatherDisplay:10.37,2013-07-04 14:29:00,
2013-07-05 00:34:00,51.1,47.6,29.38,West,270,0.0,0.0,88,0.00,CLR,OVC,0.00,WeatherDisplay:10.37,2013-07-04 14:34:00,
2013-07-05 00:39:00,50.9,47.2,29.38,WSW,248,0.0,0.0,87,0.00,CLR,OVC,0.00,WeatherDisplay:10.37,2013-07-04 14:39:00,
2013-07-05 00:44:00,50.9,47.2,29.38,WNW,292,0.0,0.0,87,0.00,CLR,OVC,0.00,WeatherDisplay:10.37,2013-07-04 14:44:00,
2013-07-05 00:49:00,50.9,47.2,29.38,NW,315,0.0,0.0,87,0.00,CLR,OVC,0.00,WeatherDisplay:10.37,2013-07-04 14:49:00,
2013-07-05 00:54:00,50.7,47.0,29.38,SSW,202,0.0,0.0,87,0.00,CLR,OVC,0.00,WeatherDisplay:10.37,2013-07-04 14:54:00,
2013-07-05 00:59:00,50.7,46.7,29.38,West,270,0.0,0.0,86,0.00,CLR,OVC,0.00,WeatherDisplay:10.37,2013-07-04 14:59:00,
2013-07-05 01:04:00,50.5,46.8,29.38,South,180,0.0,0.0,87,0.00,CLR,OVC,0.00,WeatherDisplay:10.37,2013-07-04 15:04:00,
2013-07-05 01:09:00,50.5,46.8,29.38,NNW,338,0.0,0.0,87,0.00,CLR,OVC,0.00,WeatherDisplay:10.37,2013-07-04 15:09:00,
2013-07-05 01:14:00,50.5,46.8,29.38,WNW,292,0.0,0.0,87,0.00,CLR,OVC,0.00,WeatherDisplay:10.37,2013-07-04 15:14:00,
2013-07-05 01:19:00,50.4,46.6,29.38,NNW,338,0.0,0.0,87,0.00,CLR,OVC,0.00,WeatherDisplay:10.37,2013-07-04 15:19:00,
2013-07-05 01:24:00,50.4,46.6,29.38,North,0,0.0,0.0,87,0.00,CLR,OVC,0.00,WeatherDisplay:10.37,2013-07-04 15:24:00,
2013-07-05 01:29:00,50.4,46.6,29.38,NW,315,1.2,0.0,87,0.00,CLR,OVC,0.00,WeatherDisplay:10.37,2013-07-04 15:29:00,
2013-07-05 01:34:00,50.2,46.8,29.38,NE,45,1.2,0.0,88,0.00,CLR,OVC,0.00,WeatherDisplay:10.37,2013-07-04 15:34:00,
2013-07-05 01:39:00,50.0,46.3,29.38,West,270,0.0,0.0,87,0.00,CLR,OVC,0.00,WeatherDisplay:10.37,2013-07-04 15:39:00,
2013-07-05 01:44:00,50.0,46.6,29.38,West,270,0.0,0.0,88,0.00,CLR,OVC,0.00,WeatherDisplay:10.37,2013-07-04 15:44:00,
2013-07-05 01:49:00,50.2,46.8,29.38,SE,135,0.0,0.0,88,0.00,CLR,OVC,0.00,WeatherDisplay:10.37,2013-07-04 15:49:00,
2013-07-05 01:54:00,50.2,46.8,29.38,ENE,68,0.0,0.0,88,0.00,CLR,OVC,0.00,WeatherDisplay:10.37,2013-07-04 15:54:00,
2013-07-05 01:59:00,50.2,47.1,29.38,SE,135,1.2,0.0,89,0.00,CLR,OVC,0.00,WeatherDisplay:10.37,2013-07-04 15:59:00,
2013-07-05 02:04:00,50.0,46.9,29.38,ESE,112,0.0,0.0,89,0.00,CLR,OVC,0.00,WeatherDisplay:10.37,2013-07-04 16:04:00,
2013-07-05 02:09:00,50.0,46.9,29.38,ESE,112,0.0,0.0,89,0.00,CLR,OVC,0.00,WeatherDisplay:10.37,2013-07-04 16:09:00,
2013-07-05 02:14:00,50.0,46.9,29.38,SE,135,0.0,0.0,89,0.00,CLR,OVC,0.00,WeatherDisplay:10.37,2013-07-04 16:14:00,
2013-07-05 02:19:00,49.8,46.7,29.38,SSE,158,0.0,0.0,89,0.00,CLR,OVC,0.00,WeatherDisplay:10.37,2013-07-04 16:19:00,
2013-07-05 02:24:00,49.8,46.7,29.38,West,270,0.0,0.0,89,0.00,CLR,OVC,0.00,WeatherDisplay:10.37,2013-07-04 16:24:00,
2013-07-05 02:29:00,49.6,46.2,29.38,SSW,202,0.0,0.0,88,0.00,CLR,OVC,0.00,WeatherDisplay:10.37,2013-07-04 16:29:00,
2013-07-05 02:34:00,49.6,46.2,29.38,North,0,0.0,0.0,88,0.00,CLR,OVC,0.00,WeatherDisplay:10.37,2013-07-04 16:34:00,
2013-07-05 02:39:00,49.5,46.1,29.38,WNW,292,0.0,0.0,88,0.00,CLR,OVC,0.00,WeatherDisplay:10.37,2013-07-04 16:39:00,
2013-07-05 02:44:00,49.5,46.1,29.35,WNW,292,0.0,0.0,88,0.00,CLR,OVC,0.00,WeatherDisplay:10.37,2013-07-04 16:44:00,
2013-07-05 02:49:00,49.5,46.1,29.35,East,90,0.0,0.0,88,0.00,CLR,OVC,0.00,WeatherDisplay:10.37,2013-07-04 16:49:00,
2013-07-05 02:54:00,49.5,46.1,29.35,West,270,0.0,0.0,88,0.00,CLR,OVC,0.00,WeatherDisplay:10.37,2013-07-04 16:54:00,
2013-07-05 02:59:00,49.3,45.9,29.35,WNW,292,0.0,0.0,88,0.00,CLR,OVC,0.00,WeatherDisplay:10.37,2013-07-04 16:59:00,
2013-07-05 03:04:00,49.3,45.9,29.35,South,180,0.0,0.0,88,0.00,CLR,OVC,0.00,WeatherDisplay:10.37,2013-07-04 17:04:00,
2013-07-05 03:09:00,49.3,45.9,29.35,NW,315,0.0,0.0,88,0.00,CLR,OVC,0.00,WeatherDisplay:10.37,2013-07-04 17:09:00,
2013-07-05 03:14:00,49.3,46.2,29.35,East,90,0.0,0.0,89,0.00,CLR,OVC,0.00,WeatherDisplay:10.37,2013-07-04 17:14:00,
2013-07-05 03:19:00,49.1,46.0,29.35,WSW,248,0.0,0.0,89,0.00,CLR,OVC,0.00,WeatherDisplay:10.37,2013-07-04 17:19:00,
2013-07-05 03:24:00,49.1,45.7,29.35,WNW,292,0.0,0.0,88,0.00,CLR,OVC,0.00,WeatherDisplay:10.37,2013-07-04 17:24:00,
2013-07-05 03:29:00,49.1,46.0,29.35,West,270,0.0,0.0,89,0.00,CLR,OVC,0.00,WeatherDisplay:10.37,2013-07-04 17:29:00,
2013-07-05 03:34:00,49.1,46.0,29.35,SSW,202,0.0,0.0,89,0.00,CLR,OVC,0.00,WeatherDisplay:10.37,2013-07-04 17:34:00,
2013-07-05 03:39:00,49.1,46.0,29.35,West,270,0.0,0.0,89,0.00,CLR,OVC,0.00,WeatherDisplay:10.37,2013-07-04 17:39:00,
2013-07-05 03:44:00,49.1,46.0,29.35,WNW,292,0.0,0.0,89,0.00,CLR,OVC,0.00,WeatherDisplay:10.37,2013-07-04 17:44:00,
2013-07-05 03:49:00,49.1,46.0,29.35,SW,225,0.0,0.0,89,0.00,CLR,OVC,0.00,WeatherDisplay:10.37,2013-07-04 17:49:00,
2013-07-05 03:54:00,49.1,46.0,29.35,SSE,158,0.0,0.0,89,0.00,CLR,OVC,0.00,WeatherDisplay:10.37,2013-07-04 17:54:00,
2013-07-05 03:59:00,48.9,45.8,29.35,ESE,112,0.0,0.0,89,0.00,CLR,OVC,0.00,WeatherDisplay:10.37,2013-07-04 17:59:00,
2013-07-05 04:04:00,48.9,45.8,29.35,SW,225,0.0,0.0,89,0.00,CLR,OVC,0.00,WeatherDisplay:10.37,2013-07-04 18:04:00,
2013-07-05 04:09:00,48.9,45.8,29.35,East,90,0.0,0.0,89,0.00,CLR,OVC,0.00,WeatherDisplay:10.37,2013-07-04 18:09:00,
2013-07-05 04:14:00,48.7,45.6,29.35,ENE,68,0.0,0.0,89,0.00,CLR,OVC,0.00,WeatherDisplay:10.37,2013-07-04 18:14:00,
2013-07-05 04:19:00,48.7,45.6,29.35,NW,315,0.0,0.0,89,0.00,CLR,OVC,0.00,WeatherDisplay:10.37,2013-07-04 18:19:00,
2013-07-05 04:24:00,48.7,45.6,29.35,NNW,338,0.0,0.0,89,0.00,CLR,OVC,0.00,WeatherDisplay:10.37,2013-07-04 18:24:00,
2013-07-05 04:29:00,48.7,45.6,29.35,WSW,248,0.0,0.0,89,0.00,CLR,OVC,0.00,WeatherDisplay:10.37,2013-07-04 18:29:00,
2013-07-05 04:34:00,48.7,45.6,29.35,West,270,0.0,0.0,89,0.00,CLR,OVC,0.00,WeatherDisplay:10.37,2013-07-04 18:34:00,
2013-07-05 04:39:00,48.7,45.9,29.35,WSW,248,0.0,0.0,90,0.00,CLR,OVC,0.00,WeatherDisplay:10.37,2013-07-04 18:39:00,
2013-07-05 04:44:00,48.7,45.9,29.35,North,0,0.0,0.0,90,0.00,CLR,OVC,0.00,WeatherDisplay:10.37,2013-07-04 18:44:00,
2013-07-05 04:49:00,48.7,45.9,29.35,SW,225,0.0,0.0,90,0.00,CLR,OVC,0.00,WeatherDisplay:10.37,2013-07-04 18:49:00,
2013-07-05 04:54:00,48.7,45.6,29.35,NW,315,0.0,0.0,89,0.00,CLR,OVC,0.00,WeatherDisplay:10.37,2013-07-04 18:54:00,
2013-07-05 04:59:00,48.7,45.9,29.35,WNW,292,0.0,0.0,90,0.00,CLR,OVC,0.00,WeatherDisplay:10.37,2013-07-04 18:59:00,
2013-07-05 05:04:00,48.7,45.6,29.35,NW,315,0.0,0.0,89,0.00,CLR,OVC,0.00,WeatherDisplay:10.37,2013-07-04 19:04:00,
2013-07-05 05:09:00,48.7,45.9,29.35,WSW,248,0.0,0.0,90,0.00,CLR,OVC,0.00,WeatherDisplay:10.37,2013-07-04 19:09:00,
2013-07-05 05:14:00,48.6,45.8,29.38,WNW,292,0.0,0.0,90,0.00,CLR,OVC,0.00,WeatherDisplay:10.37,2013-07-04 19:14:00,
2013-07-05 05:19:00,48.6,45.8,29.38,NW,315,0.0,0.0,90,0.00,CLR,OVC,0.00,WeatherDisplay:10.37,2013-07-04 19:19:00,
2013-07-05 05:20:00,48.6,45.8,29.38,NW,315,0.0,0.0,90,0.00,CLR,OVC,0.00,WeatherDisplay:10.37,2013-07-04 19:20:00,
2013-07-05 05:25:00,48.6,45.5,29.38,SSW,202,0.0,0.0,89,0.00,CLR,OVC,0.00,WeatherDisplay:10.37,2013-07-04 19:25:00,
2013-07-05 05:30:00,48.4,45.3,29.35,ENE,68,0.0,0.0,89,0.00,CLR,OVC,0.00,WeatherDisplay:10.37,2013-07-04 19:30:00,
2013-07-05 05:35:00,48.4,45.3,29.35,South,180,0.0,0.0,89,0.00,CLR,OVC,0.00,WeatherDisplay:10.37,2013-07-04 19:35:00,
2013-07-05 05:40:00,48.6,45.8,29.35,South,180,1.2,0.0,90,0.00,CLR,OVC,0.00,WeatherDisplay:10.37,2013-07-04 19:40:00,
2013-07-05 05:45:00,48.4,45.6,29.35,South,180,0.0,0.0,90,0.00,CLR,OVC,0.00,WeatherDisplay:10.37,2013-07-04 19:45:00,
2013-07-05 05:50:00,48.6,45.8,29.35,WSW,248,0.0,0.0,90,0.00,CLR,OVC,0.00,WeatherDisplay:10.37,2013-07-04 19:50:00,
2013-07-05 05:55:00,48.6,46.1,29.35,NW,315,0.0,0.0,91,0.00,CLR,OVC,0.00,WeatherDisplay:10.37,2013-07-04 19:55:00,
2013-07-05 06:00:00,48.6,46.1,29.38,SE,135,2.3,2.3,91,0.00,CLR,OVC,0.00,WeatherDisplay:10.37,2013-07-04 20:00:00,
2013-07-05 06:05:00,48.6,46.1,29.38,NW,315,0.0,0.0,91,0.00,CLR,OVC,0.00,WeatherDisplay:10.37,2013-07-04 20:05:00,
2013-07-05 06:10:00,48.7,46.2,29.38,East,90,0.0,0.0,91,0.00,CLR,OVC,0.00,WeatherDisplay:10.37,2013-07-04 20:10:00,
2013-07-05 06:15:00,48.7,46.2,29.38,SE,135,3.1,0.0,91,0.00,CLR,OVC,0.00,WeatherDisplay:10.37,2013-07-04 20:15:00,
2013-07-05 06:20:00,48.7,46.5,29.38,SSW,202,0.0,0.0,92,0.00,CLR,OVC,0.00,WeatherDisplay:10.37,2013-07-04 20:20:00,
2013-07-05 06:25:00,48.7,46.5,29.38,NNW,338,0.0,0.0,92,0.00,CLR,OVC,0.00,WeatherDisplay:10.37,2013-07-04 20:25:00,
2013-07-05 06:30:00,48.7,46.5,29.38,SSW,202,4.6,0.0,92,0.00,CLR,OVC,0.00,WeatherDisplay:10.37,2013-07-04 20:30:00,
2013-07-05 06:35:00,48.7,46.5,29.38,SSE,158,1.2,0.0,92,0.00,CLR,OVC,0.00,WeatherDisplay:10.37,2013-07-04 20:35:00,
2013-07-05 06:40:00,48.9,46.7,29.38,West,270,0.0,0.0,92,0.00,CLR,OVC,0.00,WeatherDisplay:10.37,2013-07-04 20:40:00,
2013-07-05 06:45:00,48.9,46.7,29.38,East,90,0.0,0.0,92,0.00,CLR,OVC,0.00,WeatherDisplay:10.37,2013-07-04 20:45:00,
2013-07-05 06:50:00,49.1,46.9,29.38,SE,135,0.0,0.0,92,0.00,CLR,OVC,0.00,WeatherDisplay:10.37,2013-07-04 20:50:00,
2013-07-05 06:55:00,49.1,47.2,29.38,WSW,248,1.2,0.0,93,0.00,CLR,OVC,0.00,WeatherDisplay:10.37,2013-07-04 20:55:00,
2013-07-05 07:00:00,49.3,47.3,29.38,West,270,0.0,0.0,93,0.00,CLR,OVC,0.00,WeatherDisplay:10.37,2013-07-04 21:00:00,
2013-07-05 07:05:00,49.3,47.3,29.38,South,180,1.6,0.0,93,0.00,CLR,OVC,0.00,WeatherDisplay:10.37,2013-07-04 21:05:00,
2013-07-05 07:10:00,49.5,47.5,29.38,SSW,202,0.0,0.0,93,0.00,CLR,OVC,0.00,WeatherDisplay:10.37,2013-07-04 21:10:00,
2013-07-05 07:15:00,49.5,47.5,29.38,WSW,248,0.0,0.0,93,0.00,CLR,OVC,0.00,WeatherDisplay:10.37,2013-07-04 21:15:00,
2013-07-05 07:20:00,49.5,47.2,29.38,WNW,292,0.0,0.0,92,0.00,CLR,OVC,0.00,WeatherDisplay:10.37,2013-07-04 21:20:00,
2013-07-05 07:25:00,49.5,47.2,29.38,South,180,0.0,0.0,92,0.00,CLR,OVC,0.00,WeatherDisplay:10.37,2013-07-04 21:25:00,
2013-07-05 07:30:00,49.5,47.2,29.38,SW,225,0.0,0.0,92,0.00,CLR,OVC,0.00,WeatherDisplay:10.37,2013-07-04 21:30:00,
2013-07-05 07:35:00,49.5,47.2,29.38,SSW,202,0.0,0.0,92,0.00,CLR,OVC,0.00,WeatherDisplay:10.37,2013-07-04 21:35:00,
2013-07-05 07:40:00,49.6,47.4,29.38,SW,225,2.3,0.0,92,0.00,CLR,OVC,0.00,WeatherDisplay:10.37,2013-07-04 21:40:00,
2013-07-05 07:45:00,49.8,47.6,29.38,NE,45,0.0,0.0,92,0.00,CLR,OVC,0.00,WeatherDisplay:10.37,2013-07-04 21:45:00,
2013-07-05 07:50:00,50.0,47.8,29.38,SSE,158,0.0,0.0,92,0.00,CLR,OVC,0.00,WeatherDisplay:10.37,2013-07-04 21:50:00,
2013-07-05 07:55:00,50.2,47.9,29.38,ENE,68,0.0,0.0,92,0.00,CLR,OVC,0.00,WeatherDisplay:10.37,2013-07-04 21:55:00,
2013-07-05 08:00:00,50.5,48.3,29.38,North,0,0.0,0.0,92,0.00,CLR,OVC,0.00,WeatherDisplay:10.37,2013-07-04 22:00:00,
2013-07-05 08:05:00,50.7,48.5,29.38,NW,315,1.2,0.0,92,0.00,CLR,OVC,0.00,WeatherDisplay:10.37,2013-07-04 22:05:00,
2013-07-05 08:10:00,51.1,48.8,29.38,North,0,2.3,0.0,92,0.00,CLR,OVC,0.00,WeatherDisplay:10.37,2013-07-04 22:10:00,
2013-07-05 08:15:00,51.3,49.0,29.38,SW,225,3.3,3.3,92,0.00,CLR,OVC,0.00,WeatherDisplay:10.37,2013-07-04 22:15:00,
2013-07-05 08:20:00,51.6,49.4,29.38,WSW,248,0.0,0.0,92,0.00,CLR,OVC,0.00,WeatherDisplay:10.37,2013-07-04 22:20:00,
2013-07-05 08:25:00,51.6,49.4,29.38,North,0,2.4,0.0,92,0.00,CLR,OVC,0.00,WeatherDisplay:10.37,2013-07-04 22:25:00,
2013-07-05 08:30:00,51.8,49.0,29.41,North,0,2.3,2.3,90,0.00,CLR,OVC,0.00,WeatherDisplay:10.37,2013-07-04 22:30:00,
2013-07-05 08:35:00,52.3,49.5,29.41,NW,315,3.8,3.8,90,0.00,CLR,OVC,0.00,WeatherDisplay:10.37,2013-07-04 22:35:00,
2013-07-05 08:40:00,52.7,49.8,29.41,NNW,338,1.2,0.0,90,0.00,CLR,OVC,0.00,WeatherDisplay:10.37,2013-07-04 22:40:00,
2013-07-05 08:45:00,53.6,50.1,29.38,West,270,5.8,5.8,88,0.00,CLR,OVC,0.00,WeatherDisplay:10.37,2013-07-04 22:45:00,
2013-07-05 08:50:00,55.4,51.3,29.38,WNW,292,4.6,4.6,86,0.00,CLR,OVC,0.00,WeatherDisplay:10.37,2013-07-04 22:50:00,
2013-07-05 08:55:00,57.0,51.9,29.38,North,0,3.5,3.5,83,0.00,CLR,OVC,0.00,WeatherDisplay:10.37,2013-07-04 22:55:00,
2013-07-05 09:00:00,58.1,52.3,29.38,NNW,338,5.8,5.8,81,0.00,CLR,OVC,0.00,WeatherDisplay:10.37,2013-07-04 23:00:00,
2013-07-05 09:05:00,59.7,51.4,29.38,West,270,3.6,3.6,74,0.00,CLR,OVC,0.00,WeatherDisplay:10.37,2013-07-04 23:05:00,
2013-07-05 09:10:00,60.6,51.2,29.38,WNW,292,5.8,5.8,71,0.00,CLR,OVC,0.00,WeatherDisplay:10.37,2013-07-04 23:10:00,
2013-07-05 09:15:00,61.5,50.9,29.41,NW,315,5.8,5.8,68,0.00,CLR,OVC,0.00,WeatherDisplay:10.37,2013-07-04 23:15:00,
2013-07-05 09:20:00,62.6,50.7,29.41,NW,315,4.6,4.6,65,0.00,CLR,OVC,0.00,WeatherDisplay:10.37,2013-07-04 23:20:00,
2013-07-05 09:25:00,63.0,49.7,29.41,West,270,5.8,5.8,62,0.00,CLR,OVC,0.00,WeatherDisplay:10.37,2013-07-04 23:25:00,
2013-07-05 09:30:00,63.1,49.0,29.41,WNW,292,4.6,4.6,60,0.00,CLR,OVC,0.00,WeatherDisplay:10.37,2013-07-04 23:30:00,
2013-07-05 09:35:00,63.1,47.7,29.41,WNW,292,8.1,8.1,57,0.00,CLR,OVC,0.00,WeatherDisplay:10.37,2013-07-04 23:35:00,
2013-07-05 09:40:00,63.0,47.5,29.41,WSW,248,5.8,5.8,57,0.00,CLR,OVC,0.00,WeatherDisplay:10.37,2013-07-04 23:40:00,
2013-07-05 09:45:00,63.0,46.0,29.41,WSW,248,5.8,5.8,54,0.00,CLR,OVC,0.00,WeatherDisplay:10.37,2013-07-04 23:45:00,
2013-07-05 09:50:00,63.0,46.0,29.41,NNE,22,6.9,6.9,54,0.00,CLR,OVC,0.00,WeatherDisplay:10.37,2013-07-04 23:50:00,
2013-07-05 09:55:00,63.0,46.0,29.41,WNW,292,5.8,5.8,54,0.00,CLR,OVC,0.00,WeatherDisplay:10.37,2013-07-04 23:55:00,
2013-07-05 10:00:00,63.0,45.6,29.41,NNW,338,4.6,4.6,53,0.00,CLR,OVC,0.00,WeatherDisplay:10.37,2013-07-05 00:00:00,
2013-07-05 10:05:00,63.0,45.6,29.41,NNE,22,5.9,5.9,53,0.00,CLR,OVC,0.00,WeatherDisplay:10.37,2013-07-05 00:05:00,
2013-07-05 10:10:00,63.0,45.6,29.41,NNE,22,4.6,4.6,53,0.00,CLR,OVC,0.00,WeatherDisplay:10.37,2013-07-05 00:10:00,
2013-07-05 10:15:00,63.1,44.7,29.41,NNE,22,8.1,8.1,51,0.00,CLR,OVC,0.00,WeatherDisplay:10.37,2013-07-05 00:15:00,
2013-07-05 10:20:00,63.1,44.7,29.41,NNE,22,3.6,3.6,51,0.00,CLR,OVC,0.00,WeatherDisplay:10.37,2013-07-05 00:20:00,
2013-07-05 10:25:00,63.1,44.7,29.41,NW,315,6.9,6.9,51,0.00,CLR,OVC,0.00,WeatherDisplay:10.37,2013-07-05 00:25:00,
2013-07-05 10:30:00,63.1,44.2,29.41,NW,311,3.0,8.0,50,0.00,CLR,OVC,0.00,WeatherDisplay:10.37,2013-07-05 00:30:00,
2013-07-05 10:35:00,63.3,44.9,29.41,WNW,292,4.7,4.7,51,0.00,CLR,OVC,0.00,WeatherDisplay:10.37,2013-07-05 00:35:00,
2013-07-05 10:40:00,63.5,44.0,29.41,WNW,292,8.1,8.1,49,0.00,CLR,OVC,0.00,WeatherDisplay:10.37,2013-07-05 00:40:00,
2013-07-05 10:45:00,63.8,44.3,29.41,NW,310,3.0,9.0,49,0.00,CLR,OVC,0.00,WeatherDisplay:10.37,2013-07-05 00:45:00,
2013-07-05 10:50:00,64.4,44.3,29.41,WNW,292,5.8,5.8,48,0.00,CLR,OVC,0.00,WeatherDisplay:10.37,2013-07-05 00:50:00,
2013-07-05 10:55:00,64.8,44.6,29.41,NNE,22,5.8,5.8,48,0.00,CLR,OVC,0.00,WeatherDisplay:10.37,2013-07-05 00:55:00,
2013-07-05 11:00:00,64.8,44.1,29.38,NNW,334,3.0,6.0,47,0.00,CLR,OVC,0.00,WeatherDisplay:10.37,2013-07-05 01:00:00,
2013-07-05 11:05:00,64.8,44.1,29.38,West,270,6.9,6.9,47,0.00,CLR,OVC,0.00,WeatherDisplay:10.37,2013-07-05 01:05:00,
2013-07-05 11:10:00,64.8,44.1,29.38,WNW,292,5.9,5.9,47,0.00,CLR,OVC,0.00,WeatherDisplay:10.37,2013-07-05 01:10:00,
2013-07-05 11:16:00,64.6,43.9,29.38,NNW,338,6.0,6.0,47,0.00,CLR,OVC,0.00,WeatherDisplay:10.37,2013-07-05 01:16:00,
2013-07-05 11:21:00,64.8,43.5,29.38,WNW,292,6.2,6.2,46,0.00,CLR,OVC,0.00,WeatherDisplay:10.37,2013-07-05 01:21:00,
2013-07-05 11:26:00,64.6,42.7,29.38,ESE,112,4.6,4.6,45,0.00,CLR,OVC,0.00,WeatherDisplay:10.37,2013-07-05 01:26:00,
2013-07-05 11:31:00,64.8,43.5,29.38,NW,315,9.2,9.2,46,0.00,CLR,OVC,0.00,WeatherDisplay:10.37,2013-07-05 01:31:00,
2013-07-05 11:36:00,64.8,43.5,29.38,West,270,5.8,5.8,46,0.00,CLR,OVC,0.00,WeatherDisplay:10.37,2013-07-05 01:36:00,
2013-07-05 11:42:00,64.9,43.7,29.38,NNE,22,3.5,3.6,46,0.00,CLR,OVC,0.00,WeatherDisplay:10.37,2013-07-05 01:42:00,
2013-07-05 11:47:00,64.9,43.1,29.38,WNW,292,4.6,4.6,45,0.00,CLR,OVC,0.00,WeatherDisplay:10.37,2013-07-05 01:47:00,
2013-07-05 11:52:00,64.9,43.7,29.38,North,0,2.3,2.3,46,0.00,CLR,OVC,0.00,WeatherDisplay:10.37,2013-07-05 01:52:00,
2013-07-05 11:57:00,65.1,43.8,29.38,NNE,22,3.5,3.5,46,0.00,CLR,OVC,0.00,WeatherDisplay:10.37,2013-07-05 01:57:00,
2013-07-05 12:02:00,65.5,45.3,29.35,NW,315,3.3,3.3,48,0.00,CLR,OVC,0.00,WeatherDisplay:10.37,2013-07-05 02:02:00,
2013-07-05 12:07:00,65.7,44.9,29.35,West,270,4.3,4.3,47,0.00,CLR,OVC,0.00,WeatherDisplay:10.37,2013-07-05 02:07:00,
2013-07-05 12:12:00,65.7,44.3,29.35,NNW,338,3.5,3.5,46,0.00,CLR,OVC,0.00,WeatherDisplay:10.37,2013-07-05 02:12:00,
2013-07-05 12:17:00,65.7,44.3,29.38,NNW,338,2.3,2.3,46,0.00,CLR,OVC,0.00,WeatherDisplay:10.37,2013-07-05 02:17:00,
2013-07-05 12:22:00,65.7,44.3,29.38,WNW,292,4.6,4.6,46,0.00,CLR,OVC,0.00,WeatherDisplay:10.37,2013-07-05 02:22:00,
2013-07-05 12:27:00,65.7,43.7,29.38,WNW,292,4.9,4.9,45,0.00,CLR,OVC,0.00,WeatherDisplay:10.37,2013-07-05 02:27:00,
2013-07-05 12:32:00,65.8,44.5,29.35,WNW,292,2.3,2.3,46,0.00,CLR,OVC,0.00,WeatherDisplay:10.37,2013-07-05 02:32:00,
2013-07-05 12:37:00,66.0,44.6,29.35,NW,315,5.8,5.8,46,0.00,CLR,OVC,0.00,WeatherDisplay:10.37,2013-07-05 02:37:00,
2013-07-05 12:42:00,66.0,44.6,29.35,NNW,338,3.8,3.8,46,0.00,CLR,OVC,0.00,WeatherDisplay:10.37,2013-07-05 02:42:00,
2013-07-05 12:47:00,66.0,44.6,29.35,NE,45,3.6,3.6,46,0.00,CLR,OVC,0.00,WeatherDisplay:10.37,2013-07-05 02:47:00,
2013-07-05 12:52:00,66.2,44.2,29.35,East,90,3.6,3.6,45,0.00,CLR,OVC,0.00,WeatherDisplay:10.37,2013-07-05 02:52:00,
2013-07-05 12:57:00,66.0,44.1,29.35,WNW,292,5.8,0.0,45,0.00,CLR,OVC,0.00,WeatherDisplay:10.37,2013-07-05 02:57:00,
2013-07-05 13:02:00,66.4,44.4,29.35,NNE,22,3.5,3.5,45,0.00,CLR,OVC,0.00,WeatherDisplay:10.37,2013-07-05 03:02:00,
2013-07-05 13:07:00,66.4,44.4,29.35,WNW,292,5.8,5.8,45,0.00,CLR,OVC,0.00,WeatherDisplay:10.37,2013-07-05 03:07:00,
2013-07-05 13:12:00,66.4,44.4,29.35,WNW,292,2.9,2.9,45,0.00,CLR,OVC,0.00,WeatherDisplay:10.37,2013-07-05 03:12:00,
2013-07-05 13:17:00,66.4,44.4,29.35,WNW,292,4.0,4.0,45,0.00,CLR,OVC,0.00,WeatherDisplay:10.37,2013-07-05 03:17:00,
2013-07-05 13:22:00,66.6,44.5,29.35,WSW,248,3.5,3.5,45,0.00,CLR,OVC,0.00,WeatherDisplay:10.37,2013-07-05 03:22:00,
2013-07-05 13:27:00,66.2,43.6,29.35,ESE,112,2.3,2.3,44,0.00,CLR,OVC,0.00,WeatherDisplay:10.37,2013-07-05 03:27:00,
2013-07-05 13:32:00,65.8,43.9,29.35,NNW,338,4.0,4.0,45,0.00,CLR,OVC,0.00,WeatherDisplay:10.37,2013-07-05 03:32:00,
2013-07-05 13:37:00,65.5,43.6,29.35,West,270,2.9,2.9,45,0.00,CLR,OVC,0.00,WeatherDisplay:10.37,2013-07-05 03:37:00,
2013-07-05 13:42:00,65.3,43.4,29.35,West,270,5.8,5.8,45,0.00,CLR,OVC,0.00,WeatherDisplay:10.37,2013-07-05 03:42:00,
2013-07-05 13:47:00,65.1,43.8,29.35,NNW,338,2.3,2.4,46,0.00,CLR,OVC,0.00,WeatherDisplay:10.37,2013-07-05 03:47:00,
2013-07-05 13:52:00,65.7,44.3,29.35,NNW,338,5.8,5.8,46,0.00,CLR,OVC,0.00,WeatherDisplay:10.37,2013-07-05 03:52:00,
2013-07-05 13:57:00,66.0,44.1,29.35,NNW,338,3.5,3.5,45,0.00,CLR,OVC,0.00,WeatherDisplay:10.37,2013-07-05 03:57:00,
2013-07-05 14:01:00,65.8,43.9,29.35,NNE,22,2.3,2.3,45,0.00,CLR,OVC,0.00,WeatherDisplay:10.37,2013-07-05 04:01:00,
2013-07-05 14:06:00,65.8,43.3,29.35,NNE,22,4.6,4.6,44,0.00,CLR,OVC,0.00,WeatherDisplay:10.37,2013-07-05 04:06:00,
2013-07-05 14:11:00,65.7,43.7,29.35,NNE,22,2.6,2.6,45,0.00,CLR,OVC,0.00,WeatherDisplay:10.37,2013-07-05 04:11:00,
2013-07-05 14:16:00,65.8,43.9,29.35,West,270,2.6,2.6,45,0.00,CLR,OVC,0.00,WeatherDisplay:10.37,2013-07-05 04:16:00,
2013-07-05 14:21:00,66.0,44.1,29.35,West,270,4.6,4.6,45,0.00,CLR,OVC,0.00,WeatherDisplay:10.37,2013-07-05 04:21:00,
2013-07-05 14:26:00,66.0,44.1,29.35,SSE,158,2.4,2.9,45,0.00,CLR,OVC,0.00,WeatherDisplay:10.37,2013-07-05 04:26:00,
2013-07-05 14:31:00,66.2,43.6,29.35,NNW,338,5.8,5.8,44,0.00,CLR,OVC,0.00,WeatherDisplay:10.37,2013-07-05 04:31:00,
2013-07-05 14:36:00,66.0,43.5,29.35,NNW,338,5.8,5.8,44,0.00,CLR,OVC,0.00,WeatherDisplay:10.37,2013-07-05 04:36:00,
2013-07-05 14:41:00,65.8,42.7,29.35,NW,315,5.8,5.8,43,0.00,CLR,OVC,0.00,WeatherDisplay:10.37,2013-07-05 04:41:00,
2013-07-05 14:46:00,65.7,42.5,29.35,WNW,292,5.8,5.8,43,0.00,CLR,OVC,0.00,WeatherDisplay:10.37,2013-07-05 04:46:00,
2013-07-05 14:51:00,65.1,42.1,29.35,WNW,292,4.6,4.6,43,0.00,CLR,OVC,0.00,WeatherDisplay:10.37,2013-07-05 04:51:00,
2013-07-05 14:56:00,64.8,41.7,29.35,NNW,338,6.4,6.4,43,0.00,CLR,OVC,0.00,WeatherDisplay:10.37,2013-07-05 04:56:00,
2013-07-05 15:01:00,64.8,41.7,29.35,SW,225,6.9,6.9,43,0.00,CLR,OVC,0.00,WeatherDisplay:10.37,2013-07-05 05:01:00,
2013-07-05 15:06:00,64.8,41.7,29.35,WSW,248,3.5,3.5,43,0.00,CLR,OVC,0.00,WeatherDisplay:10.37,2013-07-05 05:06:00,
2013-07-05 15:11:00,64.6,41.0,29.35,NW,315,4.6,4.6,42,0.00,CLR,OVC,0.00,WeatherDisplay:10.37,2013-07-05 05:11:00,
2013-07-05 15:16:00,64.4,40.8,29.35,WNW,292,8.1,8.1,42,0.00,CLR,OVC,0.00,WeatherDisplay:10.37,2013-07-05 05:16:00,
2013-07-05 15:21:00,64.2,40.0,29.35,South,180,5.4,5.4,41,0.00,CLR,OVC,0.00,WeatherDisplay:10.37,2013-07-05 05:21:00,
2013-07-05 15:26:00,64.0,39.8,29.35,SSW,202,4.6,4.6,41,0.00,CLR,OVC,0.00,WeatherDisplay:10.37,2013-07-05 05:26:00,
2013-07-05 15:31:00,63.9,39.7,29.38,South,180,3.5,3.5,41,0.00,CLR,OVC,0.00,WeatherDisplay:10.37,2013-07-05 05:31:00,
2013-07-05 15:36:00,63.5,40.0,29.38,SE,135,3.5,3.5,42,0.00,CLR,OVC,0.00,WeatherDisplay:10.37,2013-07-05 05:36:00,
2013-07-05 15:41:00,63.1,40.3,29.38,West,270,3.5,3.5,43,0.00,CLR,OVC,0.00,WeatherDisplay:10.37,2013-07-05 05:41:00,
2013-07-05 15:46:00,63.0,40.1,29.38,NE,45,2.3,2.3,43,0.00,CLR,OVC,0.00,WeatherDisplay:10.37,2013-07-05 05:46:00,
2013-07-05 15:51:00,63.0,40.7,29.38,NNW,338,2.6,2.6,44,0.00,CLR,OVC,0.00,WeatherDisplay:10.37,2013-07-05 05:51:00,
2013-07-05 15:56:00,62.8,39.9,29.38,WNW,292,5.4,5.4,43,0.00,CLR,OVC,0.00,WeatherDisplay:10.37,2013-07-05 05:56:00,
2013-07-05 16:01:00,62.6,39.8,29.35,NW,315,4.9,4.9,43,0.00,CLR,OVC,0.00,WeatherDisplay:10.37,2013-07-05 06:01:00,
2013-07-05 16:06:00,62.6,39.8,29.35,SSE,158,3.5,3.5,43,0.00,CLR,OVC,0.00,WeatherDisplay:10.37,2013-07-05 06:06:00,
2013-07-05 16:11:00,62.1,39.9,29.35,West,270,1.2,1.2,44,0.00,CLR,OVC,0.00,WeatherDisplay:10.37,2013-07-05 06:11:00,
2013-07-05 16:17:00,62.1,39.9,29.38,NE,45,4.6,4.6,44,0.00,CLR,OVC,0.00,WeatherDisplay:10.37,2013-07-05 06:17:00,
2013-07-05 16:22:00,61.9,39.7,29.38,WNW,292,3.3,3.3,44,0.00,CLR,OVC,0.00,WeatherDisplay:10.37,2013-07-05 06:22:00,
2013-07-05 16:27:00,61.3,39.2,29.38,West,270,2.3,2.3,44,0.00,CLR,OVC,0.00,WeatherDisplay:10.37,2013-07-05 06:27:00,
2013-07-05 16:32:00,61.2,39.1,29.38,West,270,2.4,2.4,44,0.00,CLR,OVC,0.00,WeatherDisplay:10.37,2013-07-05 06:32:00,
2013-07-05 16:37:00,60.8,39.3,29.38,South,180,2.3,2.3,45,0.00,CLR,OVC,0.00,WeatherDisplay:10.37,2013-07-05 06:37:00,
2013-07-05 16:42:00,60.3,39.4,29.38,SSW,202,1.2,0.0,46,0.00,CLR,OVC,0.00,WeatherDisplay:10.37,2013-07-05 06:42:00,
2013-07-05 16:47:00,59.7,38.9,29.38,WNW,292,3.1,3.1,46,0.00,CLR,OVC,0.00,WeatherDisplay:10.37,2013-07-05 06:47:00,
2013-07-05 16:52:00,59.4,39.1,29.38,SSW,202,2.3,2.3,47,0.00,CLR,OVC,0.00,WeatherDisplay:10.37,2013-07-05 06:52:00,
2013-07-05 16:57:00,58.8,38.6,29.38,SSW,202,3.5,3.5,47,0.00,CLR,OVC,0.00,WeatherDisplay:10.37,2013-07-05 06:57:00,
2013-07-05 17:02:00,58.5,38.8,29.44,WSW,248,2.3,2.3,48,0.00,CLR,OVC,0.00,WeatherDisplay:10.37,2013-07-05 07:02:00,
2013-07-05 17:07:00,58.1,38.5,29.44,SW,225,2.3,2.3,48,0.00,CLR,OVC,0.00,WeatherDisplay:10.37,2013-07-05 07:07:00,
2013-07-05 17:12:00,57.7,38.7,29.44,SSW,202,1.6,1.6,49,0.00,CLR,OVC,0.00,WeatherDisplay:10.37,2013-07-05 07:12:00,
2013-07-05 17:17:00,57.4,38.4,29.44,WSW,248,1.2,1.2,49,0.00,CLR,OVC,0.00,WeatherDisplay:10.37,2013-07-05 07:17:00,
2013-07-05 17:22:00,57.0,38.5,29.44,SSW,202,2.3,2.3,50,0.00,CLR,OVC,0.00,WeatherDisplay:10.37,2013-07-05 07:22:00,
2013-07-05 17:27:00,56.7,38.2,29.44,South,180,0.0,0.0,50,0.00,CLR,OVC,0.00,WeatherDisplay:10.37,2013-07-05 07:27:00,
2013-07-05 17:32:00,56.5,38.1,29.41,SW,225,0.0,0.0,50,0.00,CLR,OVC,0.00,WeatherDisplay:10.37,2013-07-05 07:32:00,
2013-07-05 17:37:00,56.1,37.7,29.41,NNW,338,0.0,0.0,50,0.00,CLR,OVC,0.00,WeatherDisplay:10.37,2013-07-05 07:37:00,
2013-07-05 17:42:00,55.9,38.1,29.41,WNW,292,1.2,0.0,51,0.00,CLR,OVC,0.00,WeatherDisplay:10.37,2013-07-05 07:42:00,
2013-07-05 17:47:00,55.6,38.2,29.44,South,180,2.3,2.3,52,0.00,CLR,OVC,0.00,WeatherDisplay:10.37,2013-07-05 07:47:00,
2013-07-05 17:52:00,55.2,37.9,29.44,WNW,292,0.0,0.0,52,0.00,CLR,OVC,0.00,WeatherDisplay:10.37,2013-07-05 07:52:00,
2013-07-05 17:57:00,55.0,37.7,29.44,SSE,158,2.3,2.3,52,0.00,CLR,OVC,0.00,WeatherDisplay:10.37,2013-07-05 07:57:00,
2013-07-05 18:02:00,54.7,37.4,29.47,SSW,202,0.0,0.0,52,0.00,CLR,OVC,0.00,WeatherDisplay:10.37,2013-07-05 08:02:00,
2013-07-05 18:07:00,54.5,37.7,29.47,NNE,22,0.0,0.0,53,0.00,CLR,OVC,0.00,WeatherDisplay:10.37,2013-07-05 08:07:00,
2013-07-05 18:12:00,54.1,38.3,29.47,SSE,158,0.0,0.0,55,0.00,CLR,OVC,0.00,WeatherDisplay:10.37,2013-07-05 08:12:00,
2013-07-05 18:17:00,53.8,37.5,29.47,WNW,292,0.0,0.0,54,0.00,CLR,OVC,0.00,WeatherDisplay:10.37,2013-07-05 08:17:00,
2013-07-05 18:22:00,53.6,37.8,29.47,SW,225,0.0,0.0,55,0.00,CLR,OVC,0.00,WeatherDisplay:10.37,2013-07-05 08:22:00,
2013-07-05 18:27:00,53.4,38.1,29.47,WSW,248,0.0,0.0,56,0.00,CLR,OVC,0.00,WeatherDisplay:10.37,2013-07-05 08:27:00,
2013-07-05 18:32:00,53.2,37.9,29.50,WNW,292,0.0,0.0,56,0.00,CLR,OVC,0.00,WeatherDisplay:10.37,2013-07-05 08:32:00,
2013-07-05 18:37:00,53.1,37.8,29.50,West,270,0.0,0.0,56,0.00,CLR,OVC,0.00,WeatherDisplay:10.37,2013-07-05 08:37:00,
2013-07-05 18:42:00,52.9,37.6,29.50,West,270,1.2,0.0,56,0.00,CLR,OVC,0.00,WeatherDisplay:10.37,2013-07-05 08:42:00,
2013-07-05 18:47:00,52.5,37.3,29.50,West,270,0.0,0.0,56,0.00,CLR,OVC,0.00,WeatherDisplay:10.37,2013-07-05 08:47:00,
2013-07-05 18:52:00,52.3,37.1,29.50,SE,135,0.0,0.0,56,0.00,CLR,OVC,0.00,WeatherDisplay:10.37,2013-07-05 08:52:00,
2013-07-05 18:57:00,52.2,37.4,29.50,SW,225,2.3,2.3,57,0.00,CLR,OVC,0.00,WeatherDisplay:10.37,2013-07-05 08:57:00,
2013-07-05 19:02:00,52.0,37.7,29.50,SSW,202,0.0,0.0,58,0.00,CLR,OVC,0.00,WeatherDisplay:10.37,2013-07-05 09:02:00,
2013-07-05 19:07:00,51.6,37.3,29.50,WSW,248,1.2,1.2,58,0.00,CLR,OVC,0.00,WeatherDisplay:10.37,2013-07-05 09:07:00,
2013-07-05 19:12:00,51.4,37.6,29.50,WNW,292,2.3,0.0,59,0.00,CLR,OVC,0.00,WeatherDisplay:10.37,2013-07-05 09:12:00,
2013-07-05 19:17:00,51.3,37.4,29.47,SW,225,1.2,0.0,59,0.00,CLR,OVC,0.00,WeatherDisplay:10.37,2013-07-05 09:17:00,
2013-07-05 19:22:00,51.1,37.2,29.47,SSE,158,3.5,3.5,59,0.00,CLR,OVC,0.00,WeatherDisplay:10.37,2013-07-05 09:22:00,
2013-07-05 19:27:00,51.1,37.2,29.47,West,270,3.5,3.5,59,0.00,CLR,OVC,0.00,WeatherDisplay:10.37,2013-07-05 09:27:00,
2013-07-05 19:32:00,50.9,37.1,29.50,SE,135,4.6,4.6,59,0.00,CLR,OVC,0.00,WeatherDisplay:10.37,2013-07-05 09:32:00,
2013-07-05 19:37:00,51.3,37.0,29.50,WNW,292,3.8,3.8,58,0.00,CLR,OVC,0.00,WeatherDisplay:10.37,2013-07-05 09:37:00,
2013-07-05 19:42:00,51.3,36.5,29.50,ESE,112,2.3,2.3,57,0.00,CLR,OVC,0.00,WeatherDisplay:10.37,2013-07-05 09:42:00,
2013-07-05 19:47:00,51.1,35.9,29.50,SSW,202,2.3,2.3,56,0.00,CLR,OVC,0.00,WeatherDisplay:10.37,2013-07-05 09:47:00,
2013-07-05 19:53:00,51.1,36.8,29.50,NNE,22,2.3,0.0,58,0.00,CLR,OVC,0.00,WeatherDisplay:10.37,2013-07-05 09:53:00,
2013-07-05 19:58:00,50.7,36.9,29.50,WNW,292,3.5,3.5,59,0.00,CLR,OVC,0.00,WeatherDisplay:10.37,2013-07-05 09:58:00,
2013-07-05 20:03:00,50.9,37.1,29.50,NNW,338,1.2,1.2,59,0.00,CLR,OVC,0.00,WeatherDisplay:10.37,2013-07-05 10:03:00,
2013-07-05 20:08:00,50.7,37.3,29.50,West,270,4.6,4.6,60,0.00,CLR,OVC,0.00,WeatherDisplay:10.37,2013-07-05 10:08:00,
2013-07-05 20:13:00,50.5,36.7,29.50,NNE,22,2.3,2.3,59,0.00,CLR,OVC,0.00,WeatherDisplay:10.37,2013-07-05 10:13:00,
2013-07-05 20:18:00,50.2,36.8,29.53,SE,135,3.5,3.5,60,0.00,CLR,OVC,0.00,WeatherDisplay:10.37,2013-07-05 10:18:00,
2013-07-05 20:23:00,50.5,35.4,29.53,WNW,292,7.1,7.1,56,0.00,CLR,OVC,0.00,WeatherDisplay:10.37,2013-07-05 10:23:00,
2013-07-05 20:28:00,50.9,35.3,29.53,NW,315,4.6,4.6,55,0.00,CLR,OVC,0.00,WeatherDisplay:10.37,2013-07-05 10:28:00,
2013-07-05 20:33:00,50.9,34.8,29.53,WNW,292,5.8,5.8,54,0.00,CLR,OVC,0.00,WeatherDisplay:10.37,2013-07-05 10:33:00,
2013-07-05 20:38:00,50.9,34.4,29.53,SW,225,3.6,3.6,53,0.00,CLR,OVC,0.00,WeatherDisplay:10.37,2013-07-05 10:38:00,
2013-07-05 20:43:00,50.9,34.4,29.53,NNW,338,2.9,2.9,53,0.00,CLR,OVC,0.00,WeatherDisplay:10.37,2013-07-05 10:43:00,
2013-07-05 20:48:00,50.9,34.8,29.56,SSW,202,4.6,4.6,54,0.00,CLR,OVC,0.00,WeatherDisplay:10.37,2013-07-05 10:48:00,
2013-07-05 20:54:00,50.5,35.4,29.56,NW,315,1.4,0.0,56,0.00,CLR,OVC,0.00,WeatherDisplay:10.37,2013-07-05 10:54:00,
2013-07-05 20:59:00,50.2,35.1,29.56,WSW,248,0.0,0.0,56,0.00,CLR,OVC,0.00,WeatherDisplay:10.37,2013-07-05 10:59:00,
2013-07-05 21:04:00,50.0,34.9,29.56,SE,135,0.0,0.0,56,0.00,CLR,OVC,0.00,WeatherDisplay:10.37,2013-07-05 11:04:00,
2013-07-05 21:09:00,49.6,35.0,29.56,SSE,158,0.0,0.0,57,0.00,CLR,OVC,0.00,WeatherDisplay:10.37,2013-07-05 11:09:00,
2013-07-05 21:14:00,49.3,34.7,29.56,SW,225,0.0,0.0,57,0.00,CLR,OVC,0.00,WeatherDisplay:10.37,2013-07-05 11:14:00,
2013-07-05 21:19:00,49.1,34.5,29.56,West,270,0.0,0.0,57,0.00,CLR,OVC,0.00,WeatherDisplay:10.37,2013-07-05 11:19:00,
2013-07-05 21:24:00,48.9,34.3,29.56,SW,225,0.0,0.0,57,0.00,CLR,OVC,0.00,WeatherDisplay:10.37,2013-07-05 11:24:00,
2013-07-05 21:29:00,48.7,34.2,29.56,SW,225,0.0,0.0,57,0.00,CLR,OVC,0.00,WeatherDisplay:10.37,2013-07-05 11:29:00,
2013-07-05 21:34:00,48.6,34.0,29.56,North,0,0.0,0.0,57,0.00,CLR,OVC,0.00,WeatherDisplay:10.37,2013-07-05 11:34:00,
2013-07-05 21:40:00,48.4,34.3,29.56,North,0,0.0,0.0,58,0.00,CLR,OVC,0.00,WeatherDisplay:10.37,2013-07-05 11:40:00,
2013-07-05 21:45:00,48.0,33.9,29.59,SSE,158,0.0,0.0,58,0.00,CLR,OVC,0.00,WeatherDisplay:10.37,2013-07-05 11:45:00,
2013-07-05 21:50:00,47.8,33.8,29.59,SW,225,0.0,0.0,58,0.00,CLR,OVC,0.00,WeatherDisplay:10.37,2013-07-05 11:50:00,
2013-07-05 21:55:00,47.7,33.6,29.59,WNW,292,0.0,0.0,58,0.00,CLR,OVC,0.00,WeatherDisplay:10.37,2013-07-05 11:55:00,
2013-07-05 22:00:00,47.5,33.4,29.59,NNW,338,0.0,0.0,58,0.00,CLR,OVC,0.00,WeatherDisplay:10.37,2013-07-05 12:00:00,
2013-07-05 22:05:00,47.3,33.7,29.59,SW,225,1.2,1.2,59,0.00,CLR,OVC,0.00,WeatherDisplay:10.37,2013-07-05 12:05:00,
2013-07-05 22:10:00,47.1,33.5,29.59,NNW,338,0.0,0.0,59,0.00,CLR,OVC,0.00,WeatherDisplay:10.37,2013-07-05 12:10:00,
2013-07-05 22:15:00,46.9,33.8,29.59,SSE,158,0.0,0.0,60,0.00,CLR,OVC,0.00,WeatherDisplay:10.37,2013-07-05 12:15:00,
2013-07-05 22:20:00,46.8,33.6,29.59,NW,315,0.0,0.0,60,0.00,CLR,OVC,0.00,WeatherDisplay:10.37,2013-07-05 12:20:00,
2013-07-05 22:25:00,46.4,33.3,29.59,WSW,248,0.0,0.0,60,0.00,CLR,OVC,0.00,WeatherDisplay:10.37,2013-07-05 12:25:00,
2013-07-05 22:30:00,46.4,33.3,29.59,WSW,248,1.2,1.2,60,0.00,CLR,OVC,0.00,WeatherDisplay:10.37,2013-07-05 12:30:00,
2013-07-05 22:35:00,46.2,33.5,29.59,SW,225,1.4,1.4,61,0.00,CLR,OVC,0.00,WeatherDisplay:10.37,2013-07-05 12:35:00,
2013-07-05 22:41:00,46.0,33.3,29.59,West,270,1.2,0.0,61,0.00,CLR,OVC,0.00,WeatherDisplay:10.37,2013-07-05 12:41:00,
2013-07-05 22:46:00,45.9,33.6,29.59,WNW,292,1.2,0.0,62,0.00,CLR,OVC,0.00,WeatherDisplay:10.37,2013-07-05 12:46:00,
2013-07-05 22:51:00,45.9,33.6,29.59,WSW,248,0.0,0.0,62,0.00,CLR,OVC,0.00,WeatherDisplay:10.37,2013-07-05 12:51:00,
2013-07-05 22:56:00,45.5,33.2,29.59,West,270,0.0,0.0,62,0.00,CLR,OVC,0.00,WeatherDisplay:10.37,2013-07-05 12:56:00,
2013-07-05 23:01:00,45.5,33.6,29.62,WNW,292,1.2,0.0,63,0.00,CLR,OVC,0.00,WeatherDisplay:10.37,2013-07-05 13:01:00,
2013-07-05 23:06:00,45.3,33.5,29.62,WSW,248,0.0,0.0,63,0.00,CLR,OVC,0.00,WeatherDisplay:10.37,2013-07-05 13:06:00,
2013-07-05 23:12:00,45.1,33.3,29.62,SSW,202,0.0,0.0,63,0.00,CLR,OVC,0.00,WeatherDisplay:10.37,2013-07-05 13:12:00,
2013-07-05 23:17:00,45.1,33.3,29.62,West,270,0.0,0.0,63,0.00,CLR,OVC,0.00,WeatherDisplay:10.37,2013-07-05 13:17:00,
2013-07-05 23:22:00,45.0,33.1,29.62,WSW,248,0.0,0.0,63,0.00,CLR,OVC,0.00,WeatherDisplay:10.37,2013-07-05 13:22:00,
2013-07-05 23:27:00,44.8,32.9,29.62,West,270,0.0,0.0,63,0.00,CLR,OVC,0.00,WeatherDisplay:10.37,2013-07-05 13:27:00,
2013-07-05 23:33:00,44.6,33.2,29.62,ENE,68,0.0,0.0,64,0.00,CLR,OVC,0.00,WeatherDisplay:10.37,2013-07-05 13:33:00,
2013-07-05 23:38:00,44.4,33.0,29.62,SSW,202,0.0,0.0,64,0.00,CLR,OVC,0.00,WeatherDisplay:10.37,2013-07-05 13:38:00,
2013-07-05 23:43:00,44.2,32.8,29.62,WNW,292,0.0,0.0,64,0.00,CLR,OVC,0.00,WeatherDisplay:10.37,2013-07-05 13:43:00,
2013-07-05 23:48:00,44.1,33.0,29.62,WSW,248,0.0,0.0,65,0.00,CLR,OVC,0.00,WeatherDisplay:10.37,2013-07-05 13:48:00,
2013-07-05 23:53:00,44.1,33.4,29.62,SSE,158,0.0,0.0,66,0.00,CLR,OVC,0.00,WeatherDisplay:10.37,2013-07-05 13:53:00,
2013-07-05 23:58:00,43.9,33.3,29.62,South,180,0.0,0.0,66,0.00,CLR,OVC,0.00,WeatherDisplay:10.37,2013-07-05 13:58:00,